createdAt,value
2023-10-09T00:00:39.363Z,15.62
2023-10-09T00:03:08.408Z,15.62
2023-10-09T00:05:49.568Z,15.63
2023-10-09T00:08:22.950Z,15.64
2023-10-09T00:10:54.864Z,15.64
2023-10-09T00:13:31.589Z,15.66
2023-10-09T00:16:09.956Z,15.65
2023-10-09T00:18:37.664Z,15.68
2023-10-09T00:21:14.530Z,15.68
2023-10-09T00:23:44.926Z,15.68
2023-10-09T00:26:13.655Z,15.68
2023-10-09T00:28:52.502Z,15.70
2023-10-09T00:31:34.808Z,15.70
2023-10-09T00:34:04.850Z,15.68
2023-10-09T00:36:34.052Z,15.70
2023-10-09T00:39:12.803Z,15.71
2023-10-09T00:41:42.856Z,15.71
2023-10-09T00:44:19.509Z,15.71
2023-10-09T00:46:48.673Z,15.72
2023-10-09T00:49:17.295Z,15.70
2023-10-09T00:51:57.813Z,15.70
2023-10-09T00:54:29.877Z,15.71
2023-10-09T00:57:08.194Z,15.70
2023-10-09T00:59:39.504Z,15.70
2023-10-09T01:02:07.534Z,15.69
2023-10-09T01:04:38.680Z,15.70
2023-10-09T01:07:16.357Z,15.70
2023-10-09T01:09:45.976Z,15.71
2023-10-09T01:12:19.920Z,15.73
2023-10-09T01:14:54.117Z,15.74
2023-10-09T01:17:46.622Z,15.73
2023-10-09T01:20:18.303Z,15.73
2023-10-09T01:22:46.094Z,15.72
2023-10-09T01:25:13.730Z,15.70
2023-10-09T01:27:41.592Z,15.69
2023-10-09T01:30:15.481Z,15.69
2023-10-09T01:32:46.307Z,15.68
2023-10-09T01:35:22.547Z,15.67
2023-10-09T01:37:53.007Z,15.66
2023-10-09T01:40:29.437Z,15.65
2023-10-09T01:42:57.867Z,15.63
2023-10-09T01:45:28.560Z,15.65
2023-10-09T01:47:56.883Z,15.64
2023-10-09T01:50:36.345Z,15.66
2023-10-09T01:53:07.060Z,15.67
2023-10-09T01:55:41.904Z,15.69
2023-10-09T01:58:18.613Z,15.69
2023-10-09T02:00:50.933Z,15.70
2023-10-09T02:03:19.611Z,15.69
2023-10-09T02:05:47.505Z,15.67
2023-10-09T02:08:16.755Z,15.65
2023-10-09T02:10:49.549Z,15.68
2023-10-09T02:13:18.482Z,15.70
2023-10-09T02:15:53.106Z,15.70
2023-10-09T02:18:41.476Z,15.74
2023-10-09T02:21:09.906Z,15.72
2023-10-09T02:23:46.442Z,15.72
2023-10-09T02:26:35.717Z,15.71
2023-10-09T02:29:16.057Z,15.70
2023-10-09T02:31:53.074Z,15.68
2023-10-09T02:34:25.139Z,15.68
2023-10-09T02:36:59.174Z,15.68
2023-10-09T02:39:27.871Z,15.67
2023-10-09T02:42:02.841Z,15.67
2023-10-09T02:44:32.952Z,15.70
2023-10-09T02:47:00.746Z,15.69
2023-10-09T02:49:28.423Z,15.70
2023-10-09T02:51:56.647Z,15.70
2023-10-09T02:54:24.281Z,15.68
2023-10-09T02:57:09.347Z,15.68
2023-10-09T02:59:42.725Z,15.64
2023-10-09T03:02:12.234Z,15.63
2023-10-09T03:04:42.966Z,15.62
2023-10-09T03:07:11.831Z,15.63
2023-10-09T03:09:39.594Z,15.63
2023-10-09T03:12:11.089Z,15.61
2023-10-09T03:14:39.767Z,15.59
2023-10-09T03:17:13.010Z,15.57
2023-10-09T03:19:44.587Z,15.56
2023-10-09T03:22:13.233Z,15.54
2023-10-09T03:24:48.963Z,15.54
2023-10-09T03:27:20.292Z,15.51
2023-10-09T03:29:51.588Z,15.50
2023-10-09T03:32:21.001Z,15.49
2023-10-09T03:34:52.526Z,15.49
2023-10-09T03:37:23.666Z,15.50
2023-10-09T03:39:56.372Z,15.51
2023-10-09T03:42:25.793Z,15.51
2023-10-09T03:44:55.158Z,15.53
2023-10-09T03:47:23.992Z,15.52
2023-10-09T03:49:55.888Z,15.52
2023-10-09T03:52:27.265Z,15.50
2023-10-09T03:54:56.252Z,15.50
2023-10-09T03:57:26.119Z,15.51
2023-10-09T03:59:53.982Z,15.50
2023-10-09T04:02:24.044Z,15.50
2023-10-09T04:04:53.180Z,15.51
2023-10-09T04:07:22.816Z,15.51
2023-10-09T04:10:02.808Z,15.50
2023-10-09T04:12:32.367Z,15.49
2023-10-09T04:15:03.213Z,15.47
2023-10-09T04:17:31.113Z,15.48
2023-10-09T04:20:17.565Z,15.47
2023-10-09T04:22:51.813Z,15.47
2023-10-09T04:25:26.788Z,15.47
2023-10-09T04:28:10.516Z,15.44
2023-10-09T04:30:44.747Z,15.43
2023-10-09T04:33:29.939Z,15.41
2023-10-09T04:36:18.010Z,15.42
2023-10-09T04:39:04.925Z,15.40
2023-10-09T04:41:53.514Z,15.40
2023-10-09T04:44:24.250Z,15.38
2023-10-09T04:47:14.799Z,15.39
2023-10-09T04:49:49.207Z,15.38
2023-10-09T04:52:27.016Z,15.37
2023-10-09T04:55:06.209Z,15.36
2023-10-09T04:58:02.144Z,15.35
2023-10-09T05:00:30.569Z,15.34
2023-10-09T05:03:00.777Z,15.34
2023-10-09T05:05:42.296Z,15.32
2023-10-09T05:08:19.966Z,15.30
2023-10-09T05:11:01.765Z,15.31
2023-10-09T05:13:42.922Z,15.30
2023-10-09T05:16:26.988Z,15.28
2023-10-09T05:19:08.301Z,15.27
2023-10-09T05:21:45.620Z,15.28
2023-10-09T05:24:14.412Z,15.27
2023-10-09T05:26:48.767Z,15.26
2023-10-09T05:29:33.652Z,15.26
2023-10-09T05:32:14.013Z,15.23
2023-10-09T05:35:02.292Z,15.28
2023-10-09T05:37:35.030Z,15.29
2023-10-09T05:40:17.243Z,15.29
2023-10-09T05:42:59.389Z,15.31
2023-10-09T05:45:51.547Z,15.30
2023-10-09T05:48:19.587Z,15.31
2023-10-09T05:50:56.236Z,15.33
2023-10-09T05:53:42.416Z,15.35
2023-10-09T05:56:28.688Z,15.36
2023-10-09T05:59:15.086Z,15.35
2023-10-09T06:01:52.165Z,15.34
2023-10-09T06:04:21.314Z,15.31
2023-10-09T06:07:02.045Z,15.31
2023-10-09T06:09:49.698Z,15.31
2023-10-09T06:12:53.927Z,15.30
2023-10-09T06:15:42.787Z,15.30
2023-10-09T06:18:35.667Z,15.29
2023-10-09T06:21:06.514Z,15.29
2023-10-09T06:23:54.284Z,15.28
2023-10-09T06:26:25.399Z,15.28
2023-10-09T06:29:12.447Z,15.28
2023-10-09T06:31:59.156Z,15.30
2023-10-09T06:34:36.845Z,15.31
2023-10-09T06:37:18.391Z,15.34
2023-10-09T06:40:10.255Z,15.35
2023-10-09T06:42:41.369Z,15.35
2023-10-09T06:45:15.249Z,15.37
2023-10-09T06:47:57.374Z,15.38
2023-10-09T06:50:25.993Z,15.37
2023-10-09T06:53:06.387Z,15.39
2023-10-09T06:55:58.180Z,15.40
2023-10-09T06:58:28.897Z,15.43
2023-10-09T07:01:00.565Z,15.46
2023-10-09T07:03:34.276Z,15.45
2023-10-09T07:06:26.192Z,15.46
2023-10-09T07:09:07.890Z,15.47
2023-10-09T07:11:41.997Z,15.46
2023-10-09T07:14:33.465Z,15.45
2023-10-09T07:17:24.959Z,15.44
2023-10-09T07:19:56.984Z,15.42
2023-10-09T07:22:30.775Z,15.42
2023-10-09T07:24:59.288Z,15.41
2023-10-09T07:27:45.409Z,15.42
2023-10-09T07:30:30.386Z,15.42
2023-10-09T07:33:13.517Z,15.42
2023-10-09T07:35:45.315Z,15.43
2023-10-09T07:38:21.869Z,15.41
2023-10-09T07:41:00.918Z,15.40
2023-10-09T07:43:45.591Z,15.39
2023-10-09T07:46:33.370Z,15.43
2023-10-09T07:49:13.596Z,15.45
2023-10-09T07:51:45.404Z,15.48
2023-10-09T07:54:16.086Z,15.52
2023-10-09T07:56:47.813Z,15.56
2023-10-09T07:59:19.370Z,15.59
2023-10-09T08:02:06.517Z,15.61
2023-10-09T08:04:49.781Z,15.59
2023-10-09T08:08:03.072Z,15.57
2023-10-09T08:10:15.577Z,15.58
2023-10-09T08:12:59.005Z,15.61
2023-10-09T08:15:47.102Z,15.65
2023-10-09T08:18:19.933Z,15.71
2023-10-09T08:21:03.018Z,15.81
2023-10-09T08:23:30.842Z,15.95
2023-10-09T08:26:15.048Z,16.06
2023-10-09T08:28:44.341Z,16.23
2023-10-09T08:31:42.711Z,16.34
2023-10-09T08:35:00.542Z,16.43
2023-10-09T08:37:14.416Z,16.44
2023-10-09T08:39:43.804Z,16.42
2023-10-09T08:42:12.096Z,16.42
2023-10-09T08:44:45.561Z,16.40
2023-10-09T08:47:13.505Z,16.37
2023-10-09T08:49:43.568Z,16.39
2023-10-09T08:52:12.110Z,16.42
2023-10-09T08:54:39.891Z,16.47
2023-10-09T08:57:10.824Z,16.54
2023-10-09T08:59:47.714Z,16.57
2023-10-09T09:02:16.657Z,16.56
2023-10-09T09:04:47.057Z,16.57
2023-10-09T09:07:30.368Z,16.52
2023-10-09T09:10:05.899Z,16.51
2023-10-09T09:12:39.114Z,16.48
2023-10-09T09:15:20.081Z,16.48
2023-10-09T09:17:50.722Z,16.47
2023-10-09T09:20:24.650Z,16.43
2023-10-09T09:23:00.964Z,16.41
2023-10-09T09:25:49.526Z,16.41
2023-10-09T09:28:23.420Z,16.43
2023-10-09T09:30:55.299Z,16.49
2023-10-09T09:33:43.894Z,16.52
2023-10-09T09:36:12.882Z,16.58
2023-10-09T09:38:49.133Z,16.60
2023-10-09T09:41:26.781Z,16.62
2023-10-09T09:44:02.258Z,16.59
2023-10-09T09:46:36.526Z,16.56
2023-10-09T09:49:22.882Z,16.52
2023-10-09T09:51:50.617Z,16.51
2023-10-09T09:54:18.392Z,16.52
2023-10-09T09:56:52.571Z,16.54
2023-10-09T09:59:23.192Z,16.58
2023-10-09T10:02:08.184Z,16.60
2023-10-09T10:04:39.840Z,16.60
2023-10-09T10:07:14.012Z,16.57
2023-10-09T10:09:46.948Z,16.50
2023-10-09T10:12:16.157Z,16.49
2023-10-09T10:14:53.931Z,16.56
2023-10-09T10:17:23.120Z,16.58
2023-10-09T10:20:19.722Z,16.56
2023-10-09T10:22:50.255Z,16.62
2023-10-09T10:25:37.258Z,16.66
2023-10-09T10:28:37.253Z,16.70
2023-10-09T10:31:08.724Z,16.79
2023-10-09T10:33:56.187Z,16.82
2023-10-09T10:36:26.325Z,16.86
2023-10-09T10:39:05.662Z,16.88
2023-10-09T10:41:38.714Z,16.94
2023-10-09T10:44:25.090Z,17.01
2023-10-09T10:46:55.566Z,17.07
2023-10-09T10:49:25.009Z,17.12
2023-10-09T10:52:03.185Z,17.19
2023-10-09T10:54:34.079Z,17.23
2023-10-09T10:57:02.083Z,17.33
2023-10-09T10:59:38.133Z,17.44
2023-10-09T11:02:12.872Z,17.58
2023-10-09T11:04:43.411Z,17.74
2023-10-09T11:07:13.476Z,17.89
2023-10-09T11:10:07.388Z,17.98
2023-10-09T11:12:43.846Z,18.13
2023-10-09T11:15:24.010Z,18.26
2023-10-09T11:18:18.143Z,18.39
2023-10-09T11:21:18.607Z,18.59
2023-10-09T11:23:52.221Z,18.70
2023-10-09T11:26:27.039Z,18.83
2023-10-09T11:29:33.509Z,18.90
2023-10-09T11:32:06.924Z,18.91
2023-10-09T11:34:39.042Z,18.95
2023-10-09T11:37:13.204Z,19.01
2023-10-09T11:39:59.016Z,19.03
2023-10-09T11:42:48.306Z,19.02
2023-10-09T11:45:30.710Z,18.99
2023-10-09T11:48:02.312Z,19.02
2023-10-09T11:51:05.709Z,18.97
2023-10-09T11:53:44.777Z,19.01
2023-10-09T11:56:17.963Z,19.18
2023-10-09T11:58:51.410Z,19.34
2023-10-09T12:01:21.691Z,19.44
2023-10-09T12:03:51.456Z,19.48
2023-10-09T12:06:23.515Z,19.50
2023-10-09T12:08:51.860Z,19.45
2023-10-09T12:11:30.479Z,19.43
2023-10-09T12:13:59.491Z,19.35
2023-10-09T12:16:29.897Z,19.18
2023-10-09T12:18:59.064Z,19.05
2023-10-09T12:21:29.633Z,18.97
2023-10-09T12:24:02.148Z,18.87
2023-10-09T12:26:36.317Z,18.82
2023-10-09T12:29:05.034Z,18.79
2023-10-09T12:31:35.371Z,18.85
2023-10-09T12:34:03.900Z,18.92
2023-10-09T12:36:31.734Z,18.98
2023-10-09T12:39:02.467Z,19.06
2023-10-09T12:41:34.807Z,19.14
2023-10-09T12:44:03.425Z,19.15
2023-10-09T12:46:39.467Z,19.17
2023-10-09T12:49:07.456Z,19.15
2023-10-09T12:51:35.157Z,19.15
2023-10-09T12:54:03.109Z,19.12
2023-10-09T12:56:34.258Z,19.13
2023-10-09T12:59:03.219Z,19.21
2023-10-09T13:01:33.412Z,19.31
2023-10-09T13:04:01.352Z,19.76
2023-10-09T13:06:29.150Z,19.96
2023-10-09T13:09:01.008Z,20.01
2023-10-09T13:11:29.577Z,20.05
2023-10-09T13:14:00.400Z,19.97
2023-10-09T13:16:29.094Z,19.84
2023-10-09T13:18:59.663Z,19.73
2023-10-09T13:21:33.385Z,19.62
2023-10-09T13:24:04.154Z,19.58
2023-10-09T13:26:35.084Z,19.55
2023-10-09T13:29:04.724Z,19.54
2023-10-09T13:31:39.101Z,19.55
2023-10-09T13:34:16.293Z,19.54
2023-10-09T13:36:51.358Z,19.54
2023-10-09T13:39:22.112Z,19.53
2023-10-09T13:41:59.691Z,19.47
2023-10-09T13:44:31.427Z,19.41
2023-10-09T13:47:03.163Z,19.37
2023-10-09T13:49:33.827Z,19.23
2023-10-09T13:52:03.913Z,19.07
2023-10-09T13:54:35.275Z,18.95
2023-10-09T13:57:08.776Z,18.87
2023-10-09T13:59:38.112Z,18.80
2023-10-09T14:02:11.370Z,18.75
2023-10-09T14:04:39.724Z,18.81
2023-10-09T14:07:07.866Z,19.04
2023-10-09T14:09:39.645Z,19.13
2023-10-09T14:12:08.437Z,19.13
2023-10-09T14:14:49.762Z,19.07
2023-10-09T14:17:25.142Z,19.03
2023-10-09T14:19:54.707Z,18.90
2023-10-09T14:22:28.125Z,18.79
2023-10-09T14:25:00.600Z,18.67
2023-10-09T14:27:31.307Z,18.53
2023-10-09T14:30:02.204Z,18.50
2023-10-09T14:32:35.686Z,18.48
2023-10-09T14:35:04.012Z,18.47
2023-10-09T14:37:32.551Z,18.50
2023-10-09T14:40:00.894Z,18.53
2023-10-09T14:42:29.460Z,18.55
2023-10-09T14:44:57.550Z,18.56
2023-10-09T14:47:25.267Z,18.53
2023-10-09T14:49:55.440Z,18.48
2023-10-09T14:52:25.416Z,18.42
2023-10-09T14:54:53.297Z,18.38
2023-10-09T14:57:20.917Z,18.41
2023-10-09T14:59:50.669Z,18.38
2023-10-09T15:02:19.331Z,18.39
2023-10-09T15:04:47.532Z,18.50
2023-10-09T15:07:30.036Z,18.62
2023-10-09T15:10:06.273Z,18.71
2023-10-09T15:12:40.212Z,18.77
2023-10-09T15:15:14.598Z,18.80
2023-10-09T15:17:49.298Z,18.77
2023-10-09T15:20:18.330Z,18.72
2023-10-09T15:22:47.520Z,18.69
2023-10-09T15:25:18.761Z,18.65
2023-10-09T15:27:46.682Z,18.59
2023-10-09T15:30:18.573Z,18.60
2023-10-09T15:32:46.770Z,18.63
2023-10-09T15:35:15.293Z,18.61
2023-10-09T15:37:44.279Z,18.57
2023-10-09T15:40:15.703Z,18.61
2023-10-09T15:42:51.423Z,18.65
2023-10-09T15:45:23.101Z,18.67
2023-10-09T15:47:55.021Z,18.63
2023-10-09T15:50:26.138Z,18.55
2023-10-09T15:52:55.330Z,18.47
2023-10-09T15:55:25.829Z,18.36
2023-10-09T15:57:55.563Z,18.23
2023-10-09T16:00:29.717Z,18.18
2023-10-09T16:02:58.813Z,18.15
2023-10-09T16:05:31.891Z,18.13
2023-10-09T16:08:01.485Z,18.15
2023-10-09T16:10:29.200Z,18.15
2023-10-09T16:12:59.116Z,18.12
2023-10-09T16:15:28.703Z,18.03
2023-10-09T16:18:07.732Z,17.91
2023-10-09T16:20:38.656Z,17.86
2023-10-09T16:23:06.754Z,17.82
2023-10-09T16:25:37.415Z,17.80
2023-10-09T16:28:05.975Z,17.79
2023-10-09T16:30:33.645Z,17.74
2023-10-09T16:33:02.319Z,17.68
2023-10-09T16:35:30.306Z,17.66
2023-10-09T16:37:59.080Z,17.65
2023-10-09T16:40:27.738Z,17.63
2023-10-09T16:42:55.507Z,17.63
2023-10-09T16:45:23.268Z,17.59
2023-10-09T16:48:00.391Z,17.52
2023-10-09T16:50:29.760Z,17.44
2023-10-09T16:52:57.947Z,17.40
2023-10-09T16:55:26.314Z,17.32
2023-10-09T16:57:54.358Z,17.25
2023-10-09T17:00:36.234Z,17.19
2023-10-09T17:03:10.728Z,17.14
2023-10-09T17:05:56.605Z,17.14
2023-10-09T17:08:24.712Z,17.14
2023-10-09T17:10:52.678Z,17.16
2023-10-09T17:13:25.776Z,17.15
2023-10-09T17:15:54.644Z,17.14
2023-10-09T17:18:26.289Z,17.15
2023-10-09T17:20:55.649Z,17.15
2023-10-09T17:23:23.624Z,17.17
2023-10-09T17:25:59.034Z,17.19
2023-10-09T17:28:27.288Z,17.19
2023-10-09T17:31:01.862Z,17.21
2023-10-09T17:33:29.800Z,17.18
2023-10-09T17:35:58.581Z,17.18
2023-10-09T17:38:26.294Z,17.16
2023-10-09T17:40:54.014Z,17.15
2023-10-09T17:43:22.450Z,17.15
2023-10-09T17:45:55.210Z,17.14
2023-10-09T17:48:23.997Z,17.14
2023-10-09T17:50:54.110Z,17.13
2023-10-09T17:53:22.036Z,17.11
2023-10-09T17:55:53.751Z,17.10
2023-10-09T17:58:25.176Z,17.10
2023-10-09T18:00:59.644Z,17.09
2023-10-09T18:03:29.121Z,17.08
2023-10-09T18:05:57.016Z,17.07
2023-10-09T18:08:27.020Z,17.08
2023-10-09T18:11:07.247Z,17.08
2023-10-09T18:13:37.225Z,17.11
2023-10-09T18:16:13.148Z,17.11
2023-10-09T18:18:41.714Z,17.13
2023-10-09T18:21:10.162Z,17.11
2023-10-09T18:23:45.919Z,17.09
2023-10-09T18:26:18.671Z,17.10
2023-10-09T18:28:46.926Z,17.10
2023-10-09T18:31:17.741Z,17.10
2023-10-09T18:33:54.451Z,17.07
2023-10-09T18:36:22.953Z,17.07
2023-10-09T18:38:53.486Z,17.09
2023-10-09T18:41:23.668Z,17.10
2023-10-09T18:43:54.330Z,17.09
2023-10-09T18:46:23.555Z,17.09
2023-10-09T18:48:51.883Z,17.09
2023-10-09T18:51:19.780Z,17.08
2023-10-09T18:53:48.538Z,17.07
2023-10-09T18:56:23.637Z,17.05
2023-10-09T18:58:51.834Z,17.05
2023-10-09T19:01:19.632Z,17.03
2023-10-09T19:03:48.882Z,17.02
2023-10-09T19:06:19.269Z,16.99
2023-10-09T19:08:49.660Z,16.97
2023-10-09T19:11:21.952Z,16.97
2023-10-09T19:13:50.114Z,16.95
2023-10-09T19:18:46.247Z,16.94
2023-10-09T19:21:15.173Z,16.94
2023-10-09T19:23:47.156Z,16.92
2023-10-09T19:26:16.099Z,16.89
2023-10-09T19:28:44.979Z,16.89
2023-10-09T19:31:15.161Z,16.87
2023-10-09T19:33:43.446Z,16.86
2023-10-09T19:36:13.042Z,16.83
2023-10-09T19:38:51.447Z,16.81
2023-10-09T19:41:24.513Z,16.81
2023-10-09T19:43:56.083Z,16.81
2023-10-09T19:46:29.462Z,16.79
2023-10-09T19:48:57.622Z,16.79
2023-10-09T19:51:25.266Z,16.78
2023-10-09T19:53:56.291Z,16.78
2023-10-09T19:56:24.267Z,16.78
2023-10-09T19:58:54.722Z,16.76
2023-10-09T20:01:25.730Z,16.77
2023-10-09T20:03:53.739Z,16.76
2023-10-09T20:06:21.568Z,16.78
2023-10-09T20:08:49.469Z,16.79
2023-10-09T20:11:17.318Z,16.82
2023-10-09T20:13:45.371Z,16.82
2023-10-09T20:16:13.461Z,16.85
2023-10-09T20:18:45.079Z,16.89
2023-10-09T20:21:13.545Z,16.92
2023-10-09T20:23:42.851Z,16.93
2023-10-09T20:26:16.325Z,16.92
2023-10-09T20:28:47.073Z,16.92
2023-10-09T20:31:16.157Z,16.90
2023-10-09T20:33:44.800Z,16.89
2023-10-09T20:36:32.218Z,16.89
2023-10-09T20:38:59.972Z,16.89
2023-10-09T20:41:29.736Z,16.89
2023-10-09T20:43:57.588Z,16.88
2023-10-09T20:46:25.734Z,16.90
2023-10-09T20:48:53.694Z,16.90
2023-10-09T20:51:21.469Z,16.89
2023-10-09T20:53:49.191Z,16.91
2023-10-09T20:56:21.860Z,16.90
2023-10-09T20:58:49.779Z,16.90
2023-10-09T21:01:18.266Z,16.85
2023-10-09T21:03:50.575Z,16.82
2023-10-09T21:06:25.461Z,16.80
2023-10-09T21:08:53.810Z,16.80
2023-10-09T21:11:21.707Z,16.80
2023-10-09T21:13:49.595Z,16.80
2023-10-09T21:16:18.046Z,16.81
2023-10-09T21:18:47.289Z,16.79
2023-10-09T21:21:16.637Z,16.79
2023-10-09T21:23:45.672Z,16.79
2023-10-09T21:26:21.775Z,16.79
2023-10-09T21:28:50.527Z,16.76
2023-10-09T21:31:19.820Z,16.75
2023-10-09T21:33:50.918Z,16.76
2023-10-09T21:36:19.659Z,16.76
2023-10-09T21:38:47.702Z,16.75
2023-10-09T21:41:19.436Z,16.75
2023-10-09T21:43:47.903Z,16.75
2023-10-09T21:46:16.424Z,16.76
2023-10-09T21:48:44.615Z,16.78
2023-10-09T21:51:12.921Z,16.77
2023-10-09T21:53:41.006Z,16.77
2023-10-09T21:56:11.651Z,16.76
2023-10-09T21:58:39.754Z,16.74
2023-10-09T22:01:10.679Z,16.71
2023-10-09T22:03:41.573Z,16.68
2023-10-09T22:06:11.536Z,16.67
2023-10-09T22:08:39.530Z,16.66
2023-10-09T22:11:09.043Z,16.66
2023-10-09T22:13:37.040Z,16.66
2023-10-09T22:16:06.174Z,16.65
2023-10-09T22:18:41.321Z,16.63
2023-10-09T22:21:12.675Z,16.61
2023-10-09T22:23:54.240Z,16.60
2023-10-09T22:26:21.912Z,16.59
2023-10-09T22:28:49.632Z,16.58
2023-10-09T22:31:18.045Z,16.55
2023-10-09T22:33:52.332Z,16.52
2023-10-09T22:36:46.915Z,16.50
2023-10-09T22:39:34.393Z,16.46
2023-10-09T22:42:02.428Z,16.43
2023-10-09T22:44:34.023Z,16.38
2023-10-09T22:47:08.298Z,16.34
2023-10-09T22:49:39.560Z,16.32
2023-10-09T22:52:17.356Z,16.28
2023-10-09T22:54:46.761Z,16.24
2023-10-09T22:57:14.414Z,16.20
2023-10-09T22:59:45.721Z,16.18
2023-10-09T23:02:24.313Z,16.17
2023-10-09T23:05:19.532Z,16.12
2023-10-09T23:08:00.292Z,16.04
2023-10-09T23:10:28.599Z,16.01
2023-10-09T23:13:15.329Z,15.98
2023-10-09T23:15:51.107Z,15.98
2023-10-09T23:18:33.397Z,15.97
2023-10-09T23:21:19.929Z,15.93
2023-10-09T23:23:58.205Z,15.89
2023-10-09T23:26:34.541Z,15.85
2023-10-09T23:29:10.108Z,15.83
2023-10-09T23:31:48.127Z,15.81
2023-10-09T23:34:21.169Z,15.80
2023-10-09T23:36:49.269Z,15.77
2023-10-09T23:39:36.871Z,15.76
2023-10-09T23:42:16.480Z,15.72
2023-10-09T23:44:44.367Z,15.72
2023-10-09T23:47:18.066Z,15.70
2023-10-09T23:49:47.128Z,15.69
2023-10-09T23:52:15.193Z,15.70
2023-10-09T23:54:49.271Z,15.68
2023-10-09T23:57:20.666Z,15.66
